sensor_id;sensor_type;location;lat;lon;timestamp;pressure;altitude;pressure_sealevel;temperature;humidity
52975;BME280;38839;45.186;5.720;2023-03-15T20:37:01;99282.19;;;8.81;43.48
52975;BME280;38839;45.186;5.720;2023-03-15T20:39:26;99285.69;;;8.80;43.56
52975;BME280;38839;45.186;5.720;2023-03-15T20:41:52;99281.34;;;8.78;43.62
52975;BME280;38839;45.186;5.720;2023-03-15T20:44:17;99273.50;;;8.76;43.71
52975;BME280;38839;45.186;5.720;2023-03-15T20:46:44;99271.78;;;8.74;43.76
52975;BME280;38839;45.186;5.720;2023-03-15T20:49:10;99283.00;;;8.71;44.00
52975;BME280;38839;45.186;5.720;2023-03-15T20:51:36;99273.47;;;8.70;43.99
52975;BME280;38839;45.186;5.720;2023-03-15T20:54:01;99277.81;;;8.70;43.83
52975;BME280;38839;45.186;5.720;2023-03-15T20:56:26;99278.66;;;8.65;44.29
52975;BME280;38839;45.186;5.720;2023-03-15T20:58:52;99288.16;;;8.65;44.32
52975;BME280;38839;45.186;5.720;2023-03-15T21:01:18;99289.91;;;8.61;44.21
52975;BME280;38839;45.186;5.720;2023-03-15T21:03:44;99283.84;;;8.65;45.09
52975;BME280;38839;45.186;5.720;2023-03-15T21:06:10;99287.31;;;8.69;45.02
52975;BME280;38839;45.186;5.720;2023-03-15T21:08:35;99287.28;;;8.63;45.20
52975;BME280;38839;45.186;5.720;2023-03-15T21:11:02;99289.81;;;8.49;45.54
52975;BME280;38839;45.186;5.720;2023-03-15T21:13:28;99287.94;;;8.37;46.16
52975;BME280;38839;45.186;5.720;2023-03-15T21:15:54;99287.91;;;8.31;46.55
52975;BME280;38839;45.186;5.720;2023-03-15T21:18:21;99290.41;;;8.22;46.80
52975;BME280;38839;45.186;5.720;2023-03-15T21:21:08;99286.88;;;8.14;46.98
52975;BME280;38839;45.186;5.720;2023-03-15T21:23:33;99295.47;;;8.06;47.26
52975;BME280;38839;45.186;5.720;2023-03-15T21:26:01;99304.09;;;8.01;47.67
52975;BME280;38839;45.186;5.720;2023-03-15T21:28:28;99292.75;;;7.93;47.88
52975;BME280;38839;45.186;5.720;2023-03-15T21:30:54;99296.16;;;7.89;48.17
52975;BME280;38839;45.186;5.720;2023-03-15T21:33:21;99294.38;;;7.83;48.42
52975;BME280;38839;45.186;5.720;2023-03-15T21:35:47;99296.06;;;7.78;48.69
52975;BME280;38839;45.186;5.720;2023-03-15T21:38:12;99297.81;;;7.77;48.90
52975;BME280;38839;45.186;5.720;2023-03-15T21:40:41;99293.47;;;7.78;48.93
52975;BME280;38839;45.186;5.720;2023-03-15T21:43:06;99303.81;;;7.73;48.85
52975;BME280;38839;45.186;5.720;2023-03-15T21:45:32;99300.38;;;7.76;48.90
52975;BME280;38839;45.186;5.720;2023-03-15T21:47:57;99297.75;;;7.71;49.30
52975;BME280;38839;45.186;5.720;2023-03-15T21:50:22;99306.34;;;7.67;49.43
52975;BME280;38839;45.186;5.720;2023-03-15T21:52:48;99305.38;;;7.60;49.39
52975;BME280;38839;45.186;5.720;2023-03-15T21:55:13;99309.66;;;7.55;49.42
52975;BME280;38839;45.186;5.720;2023-03-15T21:57:40;99309.56;;;7.44;49.86
52975;BME280;38839;45.186;5.720;2023-03-15T22:00:10;99305.06;;;7.33;50.19
52975;BME280;38839;45.186;5.720;2023-03-15T22:02:44;99311.09;;;7.29;50.30
52975;BME280;38839;45.186;5.720;2023-03-15T22:05:10;99305.03;;;7.30;50.26
52975;BME280;38839;45.186;5.720;2023-03-15T22:07:37;99313.69;;;7.29;50.50
52975;BME280;38839;45.186;5.720;2023-03-15T22:10:03;99318.88;;;7.32;50.35
52975;BME280;38839;45.186;5.720;2023-03-15T22:12:28;99330.13;;;7.31;50.42
52975;BME280;38839;45.186;5.720;2023-03-15T22:14:54;99324.91;;;7.26;50.87
52975;BME280;38839;45.186;5.720;2023-03-15T22:17:19;99336.88;;;7.16;51.58
52975;BME280;38839;45.186;5.720;2023-03-15T22:19:45;99335.03;;;7.09;52.11
52975;BME280;38839;45.186;5.720;2023-03-15T22:22:10;99342.81;;;7.09;51.71
52975;BME280;38839;45.186;5.720;2023-03-15T22:24:35;99336.72;;;7.05;52.07
52975;BME280;38839;45.186;5.720;2023-03-15T22:27:01;99338.47;;;7.07;52.08
52975;BME280;38839;45.186;5.720;2023-03-15T22:29:27;99330.66;;;7.05;52.20
52975;BME280;38839;45.186;5.720;2023-03-15T22:31:52;99337.53;;;7.03;52.40
52975;BME280;38839;45.186;5.720;2023-03-15T22:34:18;99335.91;;;7.08;52.31
52975;BME280;38839;45.186;5.720;2023-03-15T22:36:44;99332.41;;;7.06;52.49
52975;BME280;38839;45.186;5.720;2023-03-15T22:39:09;99338.53;;;7.10;52.43
52975;BME280;38839;45.186;5.720;2023-03-15T22:41:36;99346.31;;;7.10;52.76
52975;BME280;38839;45.186;5.720;2023-03-15T22:44:02;99348.00;;;7.09;52.97
52975;BME280;38839;45.186;5.720;2023-03-15T22:46:28;99355.81;;;7.11;52.92
52975;BME280;38839;45.186;5.720;2023-03-15T22:48:56;99349.84;;;7.16;52.67
52975;BME280;38839;45.186;5.720;2023-03-15T22:51:22;99349.84;;;7.16;52.80
52975;BME280;38839;45.186;5.720;2023-03-15T22:53:47;99344.66;;;7.16;53.29
52975;BME280;38839;45.186;5.720;2023-03-15T22:56:13;99351.56;;;7.17;53.14
52975;BME280;38839;45.186;5.720;2023-03-15T22:58:38;99350.75;;;7.18;53.34
52975;BME280;38839;45.186;5.720;2023-03-15T23:01:04;99353.28;;;7.15;53.04
52975;BME280;38839;45.186;5.720;2023-03-15T23:03:29;99348.06;;;7.12;52.67
52975;BME280;38839;45.186;5.720;2023-03-15T23:05:55;99347.09;;;7.07;52.44
52975;BME280;38839;45.186;5.720;2023-03-15T23:08:22;99348.84;;;7.07;52.77
52975;BME280;38839;45.186;5.720;2023-03-15T23:10:47;99353.16;;;7.06;52.39
52975;BME280;38839;45.186;5.720;2023-03-15T23:13:13;99350.53;;;7.04;52.21
52975;BME280;38839;45.186;5.720;2023-03-15T23:15:39;99356.50;;;6.99;52.38
52975;BME280;38839;45.186;5.720;2023-03-15T23:18:04;99354.69;;;6.92;52.48
52975;BME280;38839;45.186;5.720;2023-03-15T23:20:30;99357.25;;;6.90;52.74
52975;BME280;38839;45.186;5.720;2023-03-15T23:22:56;99358.91;;;6.87;53.06
52975;BME280;38839;45.186;5.720;2023-03-15T23:25:22;99360.59;;;6.84;53.22
52975;BME280;38839;45.186;5.720;2023-03-15T23:27:49;99356.28;;;6.83;53.22
52975;BME280;38839;45.186;5.720;2023-03-15T23:30:15;99356.28;;;6.83;53.22
52975;BME280;38839;45.186;5.720;2023-03-15T23:32:41;99364.09;;;6.85;53.23
52975;BME280;38839;45.186;5.720;2023-03-15T23:35:08;99364.09;;;6.85;53.49
52975;BME280;38839;45.186;5.720;2023-03-15T23:37:36;99363.22;;;6.83;53.67
52975;BME280;38839;45.186;5.720;2023-03-15T23:40:02;99364.00;;;6.80;54.04
52975;BME280;38839;45.186;5.720;2023-03-15T23:42:33;99373.44;;;6.75;54.16
52975;BME280;38839;45.186;5.720;2023-03-15T23:45:02;99378.63;;;6.75;54.65
52975;BME280;38839;45.186;5.720;2023-03-15T23:47:30;99380.34;;;6.73;54.87
52975;BME280;38839;45.186;5.720;2023-03-15T23:49:56;99375.97;;;6.71;55.18
52975;BME280;38839;45.186;5.720;2023-03-15T23:52:21;99366.41;;;6.68;55.13
52975;BME280;38839;45.186;5.720;2023-03-15T23:54:47;99369.91;;;6.70;55.24
52975;BME280;38839;45.186;5.720;2023-03-15T23:57:14;99366.47;;;6.71;55.23
52975;BME280;38839;45.186;5.720;2023-03-15T23:59:40;99367.31;;;6.70;55.73
